createdAt,value
2022-12-04T00:00:22.017Z,10.78
2022-12-04T00:05:25.628Z,10.45
2022-12-04T00:10:28.834Z,10.37
2022-12-04T00:15:32.931Z,10.26
2022-12-04T00:20:41.082Z,9.88
2022-12-04T00:25:49.041Z,9.81
2022-12-04T00:30:52.371Z,9.67
2022-12-04T00:36:00.175Z,9.32
2022-12-04T00:41:04.063Z,9.36
2022-12-04T00:46:07.862Z,9.06
2022-12-04T00:51:23.446Z,8.89
2022-12-04T00:56:29.617Z,9.02
2022-12-04T01:01:32.785Z,8.95
2022-12-04T01:06:36.454Z,8.75
2022-12-04T01:11:40.299Z,8.67
2022-12-04T01:16:44.063Z,8.52
2022-12-04T01:21:47.141Z,8.34
2022-12-04T01:26:50.657Z,8.13
2022-12-04T01:31:53.777Z,8.00
2022-12-04T01:36:57.346Z,7.93
2022-12-04T01:42:00.512Z,7.89
2022-12-04T01:47:03.895Z,7.85
2022-12-04T01:52:19.718Z,7.94
2022-12-04T01:57:25.634Z,8.08
2022-12-04T02:02:37.821Z,7.87
2022-12-04T02:07:43.012Z,7.99
2022-12-04T02:13:02.852Z,7.90
2022-12-04T02:18:55.417Z,7.93
2022-12-04T02:24:14.141Z,8.10
2022-12-04T02:29:32.258Z,8.12
2022-12-04T02:34:55.068Z,8.12
2022-12-04T02:40:09.947Z,7.96
2022-12-04T02:45:17.664Z,7.86
2022-12-04T02:50:23.648Z,7.76
2022-12-04T02:55:31.801Z,7.79
2022-12-04T03:00:37.219Z,7.93
2022-12-04T03:06:02.712Z,8.05
2022-12-04T03:11:06.981Z,7.96
2022-12-04T03:16:33.322Z,8.30
2022-12-04T03:21:40.894Z,8.44
2022-12-04T03:27:01.488Z,8.38
2022-12-04T03:32:13.284Z,8.31
2022-12-04T03:37:24.481Z,8.62
2022-12-04T03:42:38.406Z,8.47
2022-12-04T03:48:10.109Z,8.53
2022-12-04T03:53:35.486Z,8.38
2022-12-04T03:58:43.613Z,8.24
2022-12-04T04:03:53.359Z,8.10
2022-12-04T04:09:02.091Z,7.87
2022-12-04T04:14:41.548Z,7.73
2022-12-04T04:20:09.142Z,7.27
2022-12-04T04:25:17.176Z,6.98
2022-12-04T04:30:21.450Z,7.21
2022-12-04T04:35:52.034Z,7.52
2022-12-04T04:41:10.118Z,7.30
2022-12-04T04:46:26.328Z,7.10
2022-12-04T04:51:31.765Z,6.78
2022-12-04T04:56:43.919Z,6.37
2022-12-04T05:01:48.564Z,5.97
2022-12-04T05:06:53.594Z,5.61
2022-12-04T05:11:56.670Z,5.33
2022-12-04T05:17:02.062Z,5.04
2022-12-04T05:22:05.940Z,4.91
2022-12-04T05:27:09.034Z,4.85
2022-12-04T05:32:12.227Z,4.85
2022-12-04T05:37:15.467Z,4.78
2022-12-04T05:42:18.641Z,4.58
2022-12-04T05:47:21.876Z,4.41
2022-12-04T05:52:25.399Z,4.29
2022-12-04T05:57:30.168Z,4.21
2022-12-04T06:02:34.701Z,4.09
2022-12-04T06:07:38.434Z,4.08
2022-12-04T06:12:42.329Z,4.10
2022-12-04T06:17:46.558Z,4.20
2022-12-04T06:22:50.127Z,4.42
2022-12-04T06:27:53.234Z,4.76
2022-12-04T06:32:56.796Z,5.18
2022-12-04T06:37:59.898Z,5.53
2022-12-04T06:43:02.976Z,5.97
2022-12-04T06:48:06.295Z,6.40
2022-12-04T06:53:09.902Z,6.82
2022-12-04T06:58:13.896Z,7.60
2022-12-04T07:03:16.929Z,10.23
2022-12-04T07:08:20.134Z,13.10
2022-12-04T07:13:23.336Z,14.89
2022-12-04T07:18:26.406Z,16.45
2022-12-04T07:23:29.772Z,18.39
2022-12-04T07:28:33.325Z,19.57
2022-12-04T07:33:37.476Z,20.53
2022-12-04T07:38:41.620Z,21.77
2022-12-04T07:43:45.543Z,22.42
2022-12-04T07:48:49.368Z,22.88
2022-12-04T07:53:53.840Z,23.45
2022-12-04T07:58:57.395Z,24.18
2022-12-04T08:04:03.397Z,24.29
2022-12-04T08:09:10.246Z,24.25
2022-12-04T08:14:15.582Z,25.34
2022-12-04T08:19:18.690Z,26.00
2022-12-04T08:24:22.456Z,26.48
2022-12-04T08:29:25.994Z,25.96
2022-12-04T08:34:29.538Z,25.81
2022-12-04T08:39:32.889Z,26.39
2022-12-04T08:44:36.615Z,26.47
2022-12-04T08:49:39.827Z,26.18
2022-12-04T08:54:43.296Z,26.24
2022-12-04T08:59:46.569Z,27.83
2022-12-04T09:04:50.083Z,26.84
2022-12-04T09:09:53.715Z,25.75
2022-12-04T09:14:57.609Z,25.48
2022-12-04T09:20:01.457Z,25.20
2022-12-04T09:25:06.091Z,24.19
2022-12-04T09:30:10.550Z,23.70
2022-12-04T09:35:14.357Z,24.55
2022-12-04T09:40:35.158Z,25.55
2022-12-04T09:45:49.654Z,26.61
2022-12-04T09:50:58.973Z,26.73
2022-12-04T09:56:08.439Z,26.99
2022-12-04T10:01:22.077Z,25.98
2022-12-04T10:06:30.646Z,24.60
2022-12-04T10:11:43.334Z,23.88
2022-12-04T10:17:29.407Z,24.43
2022-12-04T10:22:49.824Z,23.91
2022-12-04T10:28:05.170Z,22.53
2022-12-04T10:33:16.951Z,22.77
2022-12-04T10:38:44.313Z,21.95
2022-12-04T10:43:50.217Z,20.88
2022-12-04T10:48:56.004Z,19.34
2022-12-04T10:53:59.761Z,19.23
2022-12-04T10:59:05.608Z,18.75
2022-12-04T11:04:37.763Z,17.58
2022-12-04T11:09:42.880Z,18.71
2022-12-04T11:14:47.346Z,18.46
2022-12-04T11:20:00.398Z,18.94
2022-12-04T11:25:03.884Z,18.61
2022-12-04T11:30:16.868Z,18.59
2022-12-04T11:35:26.219Z,19.07
2022-12-04T11:40:31.008Z,19.24
2022-12-04T11:45:34.206Z,19.75
2022-12-04T11:50:56.892Z,18.90
2022-12-04T11:56:30.154Z,19.67
2022-12-04T12:02:07.705Z,19.66
2022-12-04T12:07:43.385Z,19.46
2022-12-04T12:13:24.301Z,20.73
2022-12-04T12:18:52.264Z,19.71
2022-12-04T12:24:15.518Z,20.68
2022-12-04T12:29:37.172Z,20.12
2022-12-04T12:34:43.537Z,19.95
2022-12-04T12:40:03.791Z,20.68
2022-12-04T12:45:16.670Z,22.06
2022-12-04T12:51:09.058Z,21.25
2022-12-04T12:56:17.331Z,22.01
2022-12-04T13:01:36.933Z,22.17
2022-12-04T13:06:43.311Z,22.14
2022-12-04T13:11:51.148Z,22.94
2022-12-04T13:17:00.023Z,22.66
2022-12-04T13:22:26.438Z,21.39
2022-12-04T13:28:00.117Z,22.88
2022-12-04T13:33:45.535Z,21.82
2022-12-04T13:39:06.702Z,21.26
2022-12-04T13:44:29.087Z,20.66
2022-12-04T13:49:35.062Z,19.74
2022-12-04T13:54:38.804Z,20.91
2022-12-04T13:59:42.497Z,21.64
2022-12-04T14:04:53.955Z,20.65
2022-12-04T14:09:59.586Z,19.38
2022-12-04T14:15:25.238Z,18.12
2022-12-04T14:20:32.492Z,18.03
2022-12-04T14:25:40.995Z,16.84
2022-12-04T14:30:45.523Z,15.87
2022-12-04T14:35:58.641Z,15.55
2022-12-04T14:41:02.171Z,15.06
2022-12-04T14:46:33.062Z,14.51
2022-12-04T14:51:42.044Z,14.39
2022-12-04T14:57:03.200Z,14.18
2022-12-04T15:02:13.725Z,13.81
2022-12-04T15:07:22.865Z,13.43
2022-12-04T15:12:35.106Z,13.07
2022-12-04T15:17:38.658Z,12.71
2022-12-04T15:22:42.154Z,12.25
2022-12-04T15:27:47.156Z,11.87
2022-12-04T15:32:53.821Z,11.52
2022-12-04T15:37:57.417Z,11.15
2022-12-04T15:43:15.921Z,11.01
2022-12-04T15:48:31.776Z,10.88
2022-12-04T15:53:39.521Z,10.54
2022-12-04T15:58:54.059Z,10.29
2022-12-04T16:03:57.257Z,9.94
2022-12-04T16:09:13.045Z,9.66
2022-12-04T16:14:19.151Z,9.47
2022-12-04T16:19:34.048Z,9.43
2022-12-04T16:24:37.682Z,9.27
2022-12-04T16:29:41.219Z,9.29
2022-12-04T16:34:45.040Z,9.39
2022-12-04T16:39:49.038Z,9.35
2022-12-04T16:44:52.430Z,9.38
2022-12-04T16:49:55.512Z,9.31
2022-12-04T16:55:03.096Z,9.16
2022-12-04T17:00:08.675Z,9.05
2022-12-04T17:05:22.055Z,8.93
2022-12-04T17:10:25.489Z,8.85
2022-12-04T17:15:28.539Z,8.71
2022-12-04T17:20:32.058Z,8.70
2022-12-04T17:25:35.291Z,8.66
2022-12-04T17:30:38.396Z,8.58
2022-12-04T17:35:44.166Z,8.69
2022-12-04T17:41:03.226Z,8.71
2022-12-04T17:46:15.114Z,8.87
2022-12-04T17:51:22.586Z,8.84
2022-12-04T17:56:28.505Z,8.74
2022-12-04T18:01:32.674Z,8.80
2022-12-04T18:06:38.743Z,8.71
2022-12-04T18:11:44.513Z,8.35
2022-12-04T18:16:53.547Z,7.90
2022-12-04T18:21:57.966Z,7.43
2022-12-04T18:27:01.527Z,6.92
2022-12-04T18:32:04.943Z,6.66
2022-12-04T18:37:08.096Z,6.39
2022-12-04T18:42:11.451Z,6.11
2022-12-04T18:47:14.919Z,5.98
2022-12-04T18:52:18.150Z,5.83
2022-12-04T18:57:21.527Z,5.84
2022-12-04T19:02:25.413Z,5.88
2022-12-04T19:07:28.634Z,5.84
2022-12-04T19:12:32.495Z,5.62
2022-12-04T19:17:36.602Z,5.62
2022-12-04T19:22:42.279Z,5.66
2022-12-04T19:27:45.537Z,5.72
2022-12-04T19:32:49.683Z,5.75
2022-12-04T19:37:53.614Z,5.53
2022-12-04T19:43:02.627Z,5.42
2022-12-04T19:48:06.663Z,5.36
2022-12-04T19:53:10.274Z,5.28
2022-12-04T19:58:14.605Z,5.04
2022-12-04T20:03:18.660Z,4.90
2022-12-04T20:08:22.368Z,4.80
2022-12-04T20:13:25.796Z,4.77
2022-12-04T20:18:29.276Z,4.70
2022-12-04T20:23:32.302Z,4.72
2022-12-04T20:28:36.692Z,4.58
2022-12-04T20:33:41.641Z,4.55
2022-12-04T20:38:45.102Z,4.53
2022-12-04T20:43:48.766Z,4.46
2022-12-04T20:48:54.035Z,4.49
2022-12-04T20:54:00.942Z,4.45
2022-12-04T20:59:11.586Z,4.33
2022-12-04T21:04:18.098Z,4.20
2022-12-04T21:09:25.162Z,4.15
2022-12-04T21:14:50.373Z,4.00
2022-12-04T21:19:53.406Z,4.00
2022-12-04T21:24:56.925Z,3.91
2022-12-04T21:30:00.233Z,3.84
2022-12-04T21:35:03.892Z,3.78
2022-12-04T21:40:07.827Z,3.75
2022-12-04T21:45:12.209Z,3.69
2022-12-04T21:50:15.389Z,3.67
2022-12-04T21:55:18.919Z,3.70
2022-12-04T22:00:22.024Z,3.70
2022-12-04T22:05:25.058Z,3.72
2022-12-04T22:10:28.237Z,3.78
2022-12-04T22:15:31.755Z,3.75
2022-12-04T22:20:35.484Z,3.77
2022-12-04T22:25:39.179Z,3.80
2022-12-04T22:30:48.356Z,3.88
2022-12-04T22:35:51.349Z,3.92
2022-12-04T22:40:54.467Z,3.85
2022-12-04T22:45:58.865Z,3.89
2022-12-04T22:51:12.758Z,3.83
2022-12-04T22:56:25.227Z,3.77
2022-12-04T23:01:31.066Z,3.82
2022-12-04T23:06:35.235Z,3.77
2022-12-04T23:11:38.930Z,3.83
2022-12-04T23:16:42.693Z,3.81
2022-12-04T23:21:50.799Z,3.71
2022-12-04T23:26:58.383Z,3.69
2022-12-04T23:32:01.821Z,3.75
2022-12-04T23:37:05.509Z,3.75
2022-12-04T23:42:08.549Z,3.69
2022-12-04T23:47:11.599Z,3.62
2022-12-04T23:52:14.870Z,3.46
2022-12-04T23:57:18.180Z,3.33
